Terminal Aerodrome Forecast
Issued by NWS Grand Forks, ND

Home | Current Version | Previous Version | Text Only | Print | Product List | Glossary Off
Versions: 1 2 3 4 5 6 7 8 9 10 11 12 13 14 15 16 17 18 19 20 21 22 23 24 25 26 27 28

000
FTUS43 KFGF 151139
TAFGFK
TAF
KGFK 151139Z 1512/1612 VRB03KT P6SM OVC024
     FM151500 15007KT 3SM -SN OVC025
      TEMPO 1517/1518 1SM -SN OVC007
     FM151800 15009KT P6SM OVC020
     FM152100 14008KT 2SM -SN OVC020
     FM160600 11007KT P6SM OVC015=

USA.gov is the U.S. government's official web portal to all federal, state and local government web resources and services.